»·PEaware :: N9229P KSNA-KCRQ

N9229P :: KSNA-KCRQ

FLIGHT INFORMATION

Flight Status: Arrived
Operator: Privately registered:
United States
More flights under this callsign
Pilot: James W. (24810)
Aircraft: PIPER PA-24 COMMANCHE
(PA24)
More flights by this aircraft type
Origin: KSNA John Wayne-Orange Co
United States
Destination: KCRQ McClellan-Palomar
United States
More flights between these airports :: More routes between these airports
Route: +V23 OCN
File this flight plan on PilotEdge
Remarks:
Altitude:
(Current/Filed)
5,000ft
Speed:
(Current/Filed)
170kts
Departed: 10-Dec-20 11:06 AM
Arrived: 10-Dec-20 11:39 AM
Distance/Time
Traveled:
44nm/0:32
Distance/Time
To Go:
Arrived

Flight Plot

Page will automatically refresh every two minutes.


Map Options




Map Legend


Flown Route
Filed Route
Departure Airport
Arrival Airport
Navaid (VOR, NDB)
Fix

Horizontal Profiles

Position Reports

Time Latitude Longitude Heading Altitude Ground
Speed
10-Dec-20 10:40 33.675861 -117.870999 218 58ft 0kts
10-Dec-20 10:41 33.675861 -117.870999 218 58ft 0kts
10-Dec-20 10:42 33.675861 -117.870999 218 58ft 0kts
10-Dec-20 10:43 33.675861 -117.870999 218 58ft 0kts
10-Dec-20 10:44 33.675861 -117.870999 218 58ft 0kts
10-Dec-20 10:52 33.675861 -117.870999 218 58ft 0kts
10-Dec-20 10:53 33.675861 -117.870999 218 58ft 0kts
10-Dec-20 10:54 33.675861 -117.870999 218 58ft 0kts
10-Dec-20 10:55 33.675861 -117.870999 218 58ft 0kts
10-Dec-20 10:56 33.675861 -117.870999 218 58ft 0kts
10-Dec-20 10:57 33.675861 -117.870999 218 58ft 0kts
10-Dec-20 10:58 33.675861 -117.870999 218 58ft 0kts
10-Dec-20 10:59 33.675861 -117.870999 218 58ft 0kts
10-Dec-20 11:00 33.675658 -117.870932 132 58ft 4kts
10-Dec-20 11:01 33.677306 -117.869293 30 58ft 12kts
10-Dec-20 11:02 33.679935 -117.867821 27 58ft 9kts
10-Dec-20 11:03 33.681240 -117.866515 110 58ft 0kts
10-Dec-20 11:04 33.681240 -117.866515 110 58ft 0kts
10-Dec-20 11:05 33.678301 -117.867187 208 58ft 73kts
10-Dec-20 11:06 33.646825 -117.878786 186 1029ft 151kts
10-Dec-20 11:07 33.603469 -117.884812 186 1832ft 150kts
10-Dec-20 11:08 33.564181 -117.890266 186 2625ft 137kts
10-Dec-20 11:09 33.526708 -117.890595 138 3428ft 142kts
10-Dec-20 11:10 33.510728 -117.846898 111 4238ft 145kts
10-Dec-20 11:11 33.494749 -117.798465 111 4876ft 169kts
10-Dec-20 11:12 33.476811 -117.744009 111 4879ft 169kts
10-Dec-20 11:13 33.460132 -117.693300 111 4880ft 160kts
10-Dec-20 11:14 33.437746 -117.648176 131 4879ft 160kts
10-Dec-20 11:15 33.406316 -117.610589 135 4881ft 160kts
10-Dec-20 11:16 33.374366 -117.573307 135 4880ft 160kts
10-Dec-20 11:17 33.342493 -117.536107 135 4880ft 160kts
10-Dec-20 11:18 33.310560 -117.498829 135 4881ft 160kts
10-Dec-20 11:19 33.278702 -117.461652 135 4881ft 160kts
10-Dec-20 11:20 33.246729 -117.424540 135 4881ft 160kts
10-Dec-20 11:21 33.233897 -117.376764 90 4882ft 160kts
10-Dec-20 11:22 33.232806 -117.323311 91 4881ft 160kts
10-Dec-20 11:23 33.231730 -117.270160 91 4881ft 160kts
10-Dec-20 11:24 33.230780 -117.222341 91 4872ft 125kts
10-Dec-20 11:25 33.230023 -117.184350 91 4880ft 108kts
10-Dec-20 11:26 33.229321 -117.148913 91 4880ft 105kts
10-Dec-20 11:27 33.228656 -117.115094 91 4880ft 98kts
10-Dec-20 11:28 33.228015 -117.082253 91 4881ft 98kts
10-Dec-20 11:29 33.225962 -117.049741 123 4831ft 103kts
10-Dec-20 11:30 33.195480 -117.040433 172 4278ft 119kts
10-Dec-20 11:31 33.169545 -117.058761 231 3779ft 118kts
10-Dec-20 11:32 33.157748 -117.094061 261 3276ft 117kts
10-Dec-20 11:33 33.152280 -117.130689 259 2895ft 115kts
10-Dec-20 11:34 33.146306 -117.168082 259 2480ft 105kts
10-Dec-20 11:35 33.140714 -117.202897 259 1719ft 93kts
10-Dec-20 11:36 33.136384 -117.229730 259 1115ft 88kts
10-Dec-20 11:37 33.131709 -117.258690 259 614ft 89kts
10-Dec-20 11:38 33.127870 -117.281944 249 321ft 22kts
10-Dec-20 11:39 33.127118 -117.281916 78 321ft 11kts
10-Dec-20 11:40 33.127013 -117.279812 87 317ft 0kts
10-Dec-20 11:41 33.127013 -117.279812 87 317ft 0kts

Navigation Log

Ident Type
Flight plan parsing failed, navigation log unavailable